createdAt,value
2019-02-14T00:00:06.206Z,6.10
2019-02-14T00:02:36.693Z,6.04
2019-02-14T00:05:07.117Z,6.02
2019-02-14T00:07:37.470Z,5.91
2019-02-14T00:10:08.966Z,5.90
2019-02-14T00:12:39.341Z,5.81
2019-02-14T00:15:11.905Z,5.74
2019-02-14T00:17:42.820Z,5.68
2019-02-14T00:20:13.222Z,5.62
2019-02-14T00:22:44.123Z,5.56
2019-02-14T00:25:14.624Z,5.54
2019-02-14T00:27:44.988Z,5.49
2019-02-14T00:30:15.366Z,5.43
2019-02-14T00:32:45.924Z,5.38
2019-02-14T00:35:24.554Z,5.35
2019-02-14T00:37:49.901Z,5.29
2019-02-14T00:40:20.286Z,5.25
2019-02-14T00:42:51.240Z,5.23
2019-02-14T00:45:21.571Z,5.20
2019-02-14T00:47:52.182Z,5.18
2019-02-14T00:50:22.631Z,5.12
2019-02-14T00:52:52.990Z,5.13
2019-02-14T00:55:23.805Z,5.07
2019-02-14T00:57:54.112Z,5.05
2019-02-14T01:00:24.476Z,5.03
2019-02-14T01:02:57.241Z,5.03
2019-02-14T01:05:33.422Z,5.02
2019-02-14T01:08:00.014Z,4.98
2019-02-14T01:10:31.465Z,4.95
2019-02-14T01:13:01.920Z,4.98
2019-02-14T01:15:36.253Z,5.00
2019-02-14T01:18:07.409Z,5.03
2019-02-14T01:20:37.901Z,4.96
2019-02-14T01:23:08.398Z,5.02
2019-02-14T01:25:40.850Z,5.03
2019-02-14T01:28:12.320Z,5.05
2019-02-14T01:30:43.969Z,5.05
2019-02-14T01:33:14.331Z,5.02
2019-02-14T01:35:44.638Z,5.01
2019-02-14T01:38:15.015Z,4.97
2019-02-14T01:40:45.403Z,4.97
2019-02-14T01:43:15.899Z,4.94
2019-02-14T01:45:46.187Z,4.90
2019-02-14T01:48:17.029Z,4.86
2019-02-14T01:50:47.371Z,4.83
2019-02-14T01:53:17.770Z,4.82
2019-02-14T01:55:48.160Z,4.84
2019-02-14T01:58:18.734Z,4.83
2019-02-14T02:00:49.163Z,4.82
2019-02-14T02:03:19.490Z,4.76
2019-02-14T02:05:51.049Z,4.70
2019-02-14T03:46:16.452Z,3.56
2019-02-14T04:10:50.680Z,3.74
2019-02-14T04:31:41.709Z,3.78
2019-02-14T04:38:06.920Z,3.80
2019-02-14T04:45:07.307Z,3.78
2019-02-14T04:48:26.554Z,3.80
2019-02-14T07:51:48.628Z,4.71
2019-02-14T08:05:59.458Z,6.36
2019-02-14T08:20:00.975Z,5.90
2019-02-14T08:23:13.352Z,5.96
2019-02-14T08:33:53.336Z,6.32
2019-02-14T08:55:02.802Z,7.22
2019-02-14T10:59:19.216Z,14.23
2019-02-14T11:06:30.688Z,13.50
2019-02-14T11:13:29.922Z,13.43
2019-02-14T12:00:13.899Z,15.79
2019-02-14T12:03:03.545Z,15.77
2019-02-14T12:44:41.375Z,16.79
2019-02-14T12:47:33.972Z,17.03
2019-02-14T12:54:36.228Z,16.80
2019-02-14T13:13:09.234Z,16.97
2019-02-14T13:22:53.491Z,17.02
2019-02-14T13:59:27.772Z,15.51
2019-02-14T14:21:59.270Z,14.89
2019-02-14T14:29:03.899Z,14.44
2019-02-14T14:38:45.167Z,14.45
2019-02-14T14:42:14.622Z,14.65
2019-02-14T14:45:44.276Z,14.89
2019-02-14T14:55:53.038Z,14.78
2019-02-14T15:02:31.675Z,14.52
2019-02-14T15:05:46.929Z,14.39
2019-02-14T15:19:40.828Z,13.87
2019-02-14T15:26:08.315Z,13.65
2019-02-14T15:37:34.642Z,13.33
2019-02-14T15:40:44.391Z,13.02
2019-02-14T15:44:07.849Z,12.80
2019-02-14T15:47:39.944Z,12.58
2019-02-14T15:55:06.374Z,12.15
2019-02-14T16:05:49.270Z,11.35
2019-02-14T16:24:00.778Z,10.11
2019-02-14T16:27:57.205Z,9.89
2019-02-14T16:50:55.436Z,8.98
2019-02-14T17:05:32.749Z,8.48
2019-02-14T17:08:52.326Z,8.36
2019-02-14T17:27:05.871Z,7.92
2019-02-14T17:48:30.907Z,7.53
2019-02-14T17:51:54.278Z,7.41
2019-02-14T18:20:50.046Z,6.96
2019-02-14T18:24:22.689Z,6.88
2019-02-14T19:03:23.697Z,5.14
2019-02-14T19:06:31.842Z,4.97
2019-02-14T19:24:33.910Z,4.34
2019-02-14T19:31:12.546Z,4.19
2019-02-14T19:33:42.972Z,4.08
2019-02-14T19:36:13.909Z,4.00
2019-02-14T19:38:49.335Z,3.94
2019-02-14T19:41:26.543Z,3.85
2019-02-14T19:44:02.055Z,3.82
2019-02-14T19:46:37.427Z,3.74
2019-02-14T19:49:11.712Z,3.69
2019-02-14T19:51:47.432Z,3.67
2019-02-14T19:54:18.014Z,3.59
2019-02-14T19:56:49.061Z,3.57
2019-02-14T19:59:19.609Z,3.49
2019-02-14T20:01:49.958Z,3.39
2019-02-14T20:04:20.607Z,3.30
2019-02-14T20:06:50.955Z,3.22
2019-02-14T20:09:21.573Z,3.16
2019-02-14T20:11:52.545Z,3.10
2019-02-14T20:14:23.051Z,3.02
2019-02-14T20:16:53.298Z,2.95
2019-02-14T20:19:23.610Z,2.90
2019-02-14T20:21:54.167Z,2.85
2019-02-14T20:24:25.433Z,2.79
2019-02-14T20:26:55.703Z,2.79
2019-02-14T20:29:26.193Z,2.82
2019-02-14T20:31:56.471Z,2.85
2019-02-14T20:34:26.778Z,2.89
2019-02-14T20:36:57.083Z,2.88
2019-02-14T20:39:27.520Z,2.90
2019-02-14T20:41:57.884Z,2.90
2019-02-14T20:44:30.054Z,2.90
2019-02-14T20:47:01.198Z,2.92
2019-02-14T20:49:31.523Z,2.91
2019-02-14T20:52:02.381Z,2.92
2019-02-14T20:54:33.062Z,2.90
2019-02-14T20:57:05.241Z,2.89
2019-02-14T20:59:36.070Z,2.93
2019-02-14T21:02:07.424Z,2.95
2019-02-14T21:04:37.826Z,3.03
2019-02-14T21:07:08.076Z,3.03
2019-02-14T21:09:38.318Z,3.02
2019-02-14T21:12:09.041Z,2.96
2019-02-14T21:14:39.311Z,2.95
2019-02-14T21:17:09.681Z,2.88
2019-02-14T21:19:40.318Z,2.84
2019-02-14T21:22:18.179Z,2.83
2019-02-14T21:24:43.069Z,2.78
2019-02-14T21:27:13.526Z,2.75
2019-02-14T21:29:44.543Z,2.71
2019-02-14T21:32:14.902Z,2.63
2019-02-14T21:34:45.360Z,2.57
2019-02-14T21:37:15.732Z,2.47
2019-02-14T21:39:46.576Z,2.42
2019-02-14T21:42:20.851Z,2.38
2019-02-14T21:44:48.874Z,2.30
2019-02-14T21:47:19.349Z,2.27
2019-02-14T21:49:50.010Z,2.27
2019-02-14T21:52:20.639Z,2.23
2019-02-14T21:54:50.897Z,2.23
2019-02-14T21:57:21.303Z,2.13
2019-02-14T21:59:51.530Z,2.04
2019-02-14T22:02:21.857Z,2.05
2019-02-14T22:04:52.391Z,1.89
2019-02-14T22:07:23.106Z,1.86
2019-02-14T22:09:53.525Z,1.81
2019-02-14T22:12:38.892Z,1.85
2019-02-14T22:14:56.313Z,1.76
2019-02-14T22:17:26.629Z,1.75
2019-02-14T22:19:57.356Z,1.76
2019-02-14T22:22:27.622Z,1.72
2019-02-14T22:24:57.858Z,1.68
2019-02-14T22:27:28.264Z,1.64
2019-02-14T22:29:59.027Z,1.66
2019-02-14T22:32:29.482Z,1.63
2019-02-14T22:34:59.837Z,1.61
2019-02-14T22:37:30.123Z,1.64
2019-02-14T22:40:00.449Z,1.62
2019-02-14T22:42:30.720Z,1.58
2019-02-14T22:45:01.043Z,1.65
2019-02-14T22:47:31.266Z,1.58
2019-02-14T22:50:01.563Z,1.51
2019-02-14T22:52:31.945Z,1.46
2019-02-14T22:55:02.185Z,1.41
2019-02-14T22:57:32.447Z,1.39
2019-02-14T23:00:02.848Z,1.38
2019-02-14T23:02:33.072Z,1.34
2019-02-14T23:05:03.498Z,1.29
2019-02-14T23:07:34.217Z,1.28
2019-02-14T23:10:04.501Z,1.24
2019-02-14T23:12:34.949Z,1.15
2019-02-14T23:15:05.429Z,1.11
2019-02-14T23:17:35.710Z,1.07
2019-02-14T23:20:06.074Z,1.04
2019-02-14T23:22:36.321Z,1.01
2019-02-14T23:25:07.240Z,0.99
2019-02-14T23:27:37.504Z,1.03
2019-02-14T23:30:08.359Z,1.05
2019-02-14T23:32:39.592Z,1.08
2019-02-14T23:35:09.925Z,1.13
2019-02-14T23:37:40.234Z,1.09
2019-02-14T23:40:10.578Z,1.10
2019-02-14T23:42:40.838Z,1.10
2019-02-14T23:45:11.197Z,1.08
2019-02-14T23:47:41.505Z,1.08
2019-02-14T23:50:12.079Z,1.06
2019-02-14T23:52:42.400Z,1.06
2019-02-14T23:55:12.667Z,1.08
2019-02-14T23:57:43.178Z,1.08
